Terminal Aerodrome Forecast
Issued by NWS Sioux Falls, SD

Home | Current Version | Previous Version | Graphics & Text | Print | Product List | Glossary Off
Versions: 1 2 3 4 5 6 7 8 9 10 11 12 13 14 15 16 17 18 19 20 21 22 23 24 25 26 27 28 29 30 31

000
FTUS43 KFSD 212300
TAFSUX
TAF
KSUX 212340Z 2200/2224 16012KT P6SM BKN150
     FM220300 17004KT P6SM SCT200
     FM221200 34010KT P6SM SKC
     FM221600 35012G17KT P6SM SCT030
     FM222200 01010KT P6SM FEW040=

USA.gov is the U.S. government's official web portal to all federal, state and local government web resources and services.